createdAt,value
2022-10-21T00:03:11.362Z,67.98
2022-10-21T00:07:14.453Z,67.78
2022-10-21T00:11:17.799Z,68.08
2022-10-21T00:15:21.307Z,68.34
2022-10-21T00:19:25.945Z,68.25
2022-10-21T00:23:29.442Z,68.50
2022-10-21T00:27:33.242Z,68.33
2022-10-21T00:31:36.363Z,68.34
2022-10-21T00:35:41.611Z,68.39
2022-10-21T00:39:45.802Z,68.14
2022-10-21T00:44:00.572Z,67.98
2022-10-21T00:48:07.879Z,68.68
2022-10-21T00:52:16.214Z,69.08
2022-10-21T00:56:24.469Z,69.44
2022-10-21T01:00:27.933Z,69.89
2022-10-21T01:04:31.532Z,69.74
2022-10-21T01:08:36.906Z,69.78
2022-10-21T01:12:51.004Z,69.78
2022-10-21T01:17:11.549Z,69.56
2022-10-21T01:21:35.128Z,69.10
2022-10-21T01:26:10.584Z,69.15
2022-10-21T01:30:39.614Z,69.00
2022-10-21T01:34:51.408Z,69.86
2022-10-21T01:39:04.833Z,69.89
2022-10-21T01:43:17.866Z,69.85
2022-10-21T01:47:27.226Z,70.22
2022-10-21T01:51:32.007Z,70.32
2022-10-21T01:55:37.101Z,70.25
2022-10-21T01:59:42.933Z,70.07
2022-10-21T02:03:50.938Z,70.38
2022-10-21T02:07:54.596Z,70.55
2022-10-21T02:12:03.652Z,70.84
2022-10-21T02:16:10.819Z,70.55
2022-10-21T02:20:18.029Z,70.38
2022-10-21T02:24:28.926Z,70.17
2022-10-21T02:28:33.019Z,70.43
2022-10-21T02:32:40.894Z,70.30
2022-10-21T02:36:55.968Z,69.89
2022-10-21T02:41:03.422Z,70.63
2022-10-21T02:45:08.885Z,71.19
2022-10-21T02:49:13.622Z,71.31
2022-10-21T02:53:18.061Z,70.97
2022-10-21T02:57:21.555Z,71.09
2022-10-21T03:01:25.109Z,70.99
2022-10-21T03:05:28.277Z,70.87
2022-10-21T03:09:33.401Z,71.38
2022-10-21T03:13:37.015Z,71.45
2022-10-21T03:17:42.300Z,71.31
2022-10-21T03:21:46.153Z,71.45
2022-10-21T03:25:50.918Z,71.40
2022-10-21T03:29:54.046Z,71.38
2022-10-21T03:33:57.475Z,71.70
2022-10-21T03:38:00.854Z,71.54
2022-10-21T03:42:06.292Z,71.48
2022-10-21T03:46:09.329Z,71.55
2022-10-21T03:50:15.104Z,71.90
2022-10-21T03:54:22.889Z,71.90
2022-10-21T03:58:28.993Z,71.60
2022-10-21T04:02:32.412Z,71.71
2022-10-21T04:06:35.630Z,71.59
2022-10-21T04:10:39.364Z,71.41
2022-10-21T04:14:44.107Z,71.38
2022-10-21T04:18:48.164Z,71.21
2022-10-21T04:22:51.160Z,71.05
2022-10-21T04:26:54.132Z,70.92
2022-10-21T04:30:59.097Z,70.75
2022-10-21T04:35:02.616Z,70.66
2022-10-21T04:39:08.166Z,70.45
2022-10-21T04:43:11.731Z,70.52
2022-10-21T04:47:16.537Z,70.15
2022-10-21T04:51:20.699Z,69.97
2022-10-21T04:55:24.318Z,69.82
2022-10-21T04:59:27.914Z,69.85
2022-10-21T05:03:34.208Z,69.85
2022-10-21T05:07:38.228Z,70.10
2022-10-21T05:11:41.776Z,70.15
2022-10-21T05:15:45.253Z,70.17
2022-10-21T05:19:49.755Z,70.30
2022-10-21T05:23:53.218Z,70.50
2022-10-21T05:27:56.227Z,70.62
2022-10-21T05:31:59.582Z,70.46
2022-10-21T05:36:09.278Z,70.60
2022-10-21T05:40:13.276Z,70.68
2022-10-21T05:44:17.097Z,70.83
2022-10-21T05:48:20.355Z,70.80
2022-10-21T05:52:25.297Z,71.03
2022-10-21T05:56:28.821Z,70.94
2022-10-21T06:00:32.361Z,70.87
2022-10-21T06:04:38.653Z,70.84
2022-10-21T06:08:44.140Z,70.67
2022-10-21T06:12:47.653Z,70.90
2022-10-21T06:16:51.102Z,71.18
2022-10-21T06:20:54.232Z,70.84
2022-10-21T06:24:59.253Z,70.85
2022-10-21T06:29:02.669Z,70.67
2022-10-21T06:33:05.830Z,70.48
2022-10-21T06:37:08.981Z,70.47
2022-10-21T06:41:15.961Z,70.50
2022-10-21T06:45:19.415Z,70.49
2022-10-21T06:49:23.229Z,70.48
2022-10-21T06:53:26.380Z,70.55
2022-10-21T06:57:31.464Z,70.59
2022-10-21T07:06:21.183Z,70.32
2022-10-21T07:10:24.293Z,69.98
2022-10-21T07:14:29.291Z,69.98
2022-10-21T07:18:32.699Z,69.94
2022-10-21T07:22:36.269Z,69.38
2022-10-21T07:26:40.444Z,69.22
2022-10-21T07:30:46.305Z,69.08
2022-10-21T07:34:49.776Z,68.91
2022-10-21T07:38:54.855Z,68.29
2022-10-21T07:42:58.836Z,67.65
2022-10-21T07:47:03.808Z,67.41
2022-10-21T07:51:09.826Z,66.40
2022-10-21T07:55:13.438Z,65.37
2022-10-21T07:59:18.588Z,64.97
2022-10-21T08:03:23.735Z,65.39
2022-10-21T08:07:27.773Z,65.51
2022-10-21T08:11:32.925Z,65.74
2022-10-21T08:15:36.721Z,65.83
2022-10-21T08:19:41.203Z,66.04
2022-10-21T08:23:44.396Z,64.94
2022-10-21T08:27:47.817Z,65.38
2022-10-21T08:31:51.291Z,64.08
2022-10-21T08:35:56.217Z,63.30
2022-10-21T08:39:59.566Z,63.06
2022-10-21T08:44:07.740Z,62.88
2022-10-21T08:48:16.054Z,62.84
2022-10-21T08:52:24.949Z,62.66
2022-10-21T08:56:31.837Z,61.51
2022-10-21T09:00:39.921Z,62.09
2022-10-21T09:04:50.388Z,61.40
2022-10-21T09:09:18.355Z,62.25
2022-10-21T09:13:32.026Z,61.16
2022-10-21T09:17:58.239Z,61.52
2022-10-21T09:22:34.304Z,61.06
2022-10-21T09:26:42.461Z,60.06
2022-10-21T09:30:47.337Z,59.96
2022-10-21T09:34:57.446Z,59.57
2022-10-21T09:39:07.789Z,59.70
2022-10-21T09:43:20.754Z,60.27
2022-10-21T09:47:25.322Z,62.30
2022-10-21T09:51:33.923Z,57.22
2022-10-21T09:55:40.683Z,56.24
2022-10-21T10:00:04.018Z,58.96
2022-10-21T10:04:12.901Z,57.77
2022-10-21T10:08:38.213Z,58.14
2022-10-21T10:12:41.524Z,56.53
2022-10-21T10:16:46.003Z,56.51
2022-10-21T10:21:06.352Z,58.00
2022-10-21T10:25:19.027Z,55.99
2022-10-21T10:29:27.244Z,57.86
2022-10-21T10:33:35.827Z,58.06
2022-10-21T10:37:39.577Z,57.58
2022-10-21T10:41:48.367Z,58.11
2022-10-21T10:45:55.310Z,57.82
2022-10-21T10:50:01.330Z,58.56
2022-10-21T10:54:18.556Z,59.62
2022-10-21T10:58:25.480Z,57.96
2022-10-21T11:02:39.779Z,55.65
2022-10-21T11:06:50.207Z,57.63
2022-10-21T11:10:58.708Z,58.23
2022-10-21T11:15:02.554Z,58.04
2022-10-21T11:19:15.721Z,58.62
2022-10-21T11:23:43.779Z,58.64
2022-10-21T11:28:08.905Z,58.09
2022-10-21T11:32:23.867Z,56.95
2022-10-21T11:36:37.178Z,57.43
2022-10-21T11:40:43.334Z,56.76
2022-10-21T11:45:01.599Z,56.96
2022-10-21T11:49:21.310Z,57.57
2022-10-21T11:53:39.924Z,57.41
2022-10-21T11:57:54.574Z,55.58
2022-10-21T12:02:07.699Z,55.55
2022-10-21T12:06:26.853Z,56.28
2022-10-21T12:10:36.102Z,56.84
2022-10-21T12:14:45.063Z,56.33
2022-10-21T12:18:52.699Z,54.94
2022-10-21T12:23:01.696Z,55.63
2022-10-21T12:27:14.413Z,55.43
2022-10-21T12:31:34.237Z,54.64
2022-10-21T12:35:50.262Z,56.21
2022-10-21T12:40:11.726Z,56.20
2022-10-21T12:44:24.802Z,56.00
2022-10-21T12:48:34.525Z,55.70
2022-10-21T12:52:39.498Z,54.89
2022-10-21T12:56:47.206Z,56.41
2022-10-21T13:00:59.057Z,57.07
2022-10-21T13:05:03.579Z,55.57
2022-10-21T13:09:46.857Z,56.73
2022-10-21T13:13:50.907Z,57.81
2022-10-21T13:17:56.072Z,55.72
2022-10-21T13:22:11.291Z,57.18
2022-10-21T13:26:22.325Z,54.82
2022-10-21T13:30:30.400Z,56.11
2022-10-21T13:34:33.655Z,56.23
2022-10-21T13:38:47.453Z,56.07
2022-10-21T13:42:58.334Z,56.92
2022-10-21T13:47:19.844Z,57.33
2022-10-21T13:51:26.401Z,55.73
2022-10-21T13:55:30.919Z,55.61
2022-10-21T13:59:35.391Z,55.87
2022-10-21T14:03:38.548Z,55.24
2022-10-21T14:07:42.761Z,54.60
2022-10-21T14:11:51.580Z,55.04
2022-10-21T14:15:56.283Z,54.16
2022-10-21T14:20:09.254Z,54.87
2022-10-21T14:24:25.916Z,56.19
2022-10-21T14:28:31.316Z,55.77
2022-10-21T14:32:35.613Z,56.00
2022-10-21T14:37:02.633Z,56.92
2022-10-21T14:41:09.359Z,56.71
2022-10-21T14:45:18.368Z,57.49
2022-10-21T14:49:27.412Z,57.09
2022-10-21T14:53:33.878Z,58.02
2022-10-21T14:57:42.244Z,57.79
2022-10-21T15:01:47.763Z,57.76
2022-10-21T15:05:50.802Z,57.61
2022-10-21T15:10:00.051Z,58.12
2022-10-21T15:14:24.534Z,58.23
2022-10-21T15:18:31.552Z,58.33
2022-10-21T15:22:38.674Z,58.73
2022-10-21T15:26:43.355Z,59.78
2022-10-21T15:30:46.461Z,59.62
2022-10-21T15:34:53.991Z,59.81
2022-10-21T15:38:57.625Z,59.72
2022-10-21T15:43:00.782Z,59.80
2022-10-21T15:47:08.800Z,60.36
2022-10-21T15:51:13.392Z,60.70
2022-10-21T15:55:17.545Z,60.97
2022-10-21T15:59:22.795Z,61.18
2022-10-21T16:03:25.917Z,61.64
2022-10-21T16:07:33.194Z,61.65
2022-10-21T16:11:41.057Z,62.29
2022-10-21T16:15:44.609Z,62.67
2022-10-21T16:19:48.072Z,63.08
2022-10-21T16:23:53.695Z,63.49
2022-10-21T16:27:57.025Z,63.38
2022-10-21T16:32:00.514Z,63.56
2022-10-21T16:36:05.105Z,63.86
2022-10-21T16:40:19.999Z,64.26
2022-10-21T16:44:23.125Z,64.77
2022-10-21T16:48:27.048Z,65.13
2022-10-21T16:52:30.425Z,65.45
2022-10-21T16:56:35.588Z,66.17
2022-10-21T17:00:39.116Z,66.12
2022-10-21T17:04:43.044Z,66.60
2022-10-21T17:08:46.066Z,66.92
2022-10-21T17:12:57.394Z,67.13
2022-10-21T17:17:00.722Z,67.48
2022-10-21T17:21:03.896Z,67.49
2022-10-21T17:25:07.625Z,67.90
2022-10-21T17:29:13.016Z,67.81
2022-10-21T17:33:16.368Z,68.58
2022-10-21T17:37:20.287Z,68.51
2022-10-21T17:41:23.755Z,68.65
2022-10-21T17:45:28.695Z,68.77
2022-10-21T17:49:31.683Z,68.75
2022-10-21T17:53:35.039Z,68.94
2022-10-21T17:57:38.419Z,69.03
2022-10-21T18:01:43.873Z,68.60
2022-10-21T18:05:48.494Z,69.28
2022-10-21T18:09:52.053Z,69.32
2022-10-21T18:13:56.227Z,69.19
2022-10-21T18:18:01.282Z,69.86
2022-10-21T18:22:05.527Z,70.01
2022-10-21T18:26:12.288Z,70.30
2022-10-21T18:30:15.751Z,70.58
2022-10-21T18:34:21.058Z,70.55
2022-10-21T18:38:24.165Z,70.63
2022-10-21T18:42:27.618Z,70.33
2022-10-21T18:46:31.803Z,70.40
2022-10-21T18:50:38.378Z,70.76
2022-10-21T18:54:41.453Z,70.87
2022-10-21T19:03:11.970Z,71.10
2022-10-21T19:07:17.042Z,71.03
2022-10-21T19:11:20.470Z,70.66
2022-10-21T19:15:23.835Z,70.63
2022-10-21T19:19:27.204Z,70.36
2022-10-21T19:23:33.727Z,70.05
2022-10-21T19:27:37.731Z,69.68
2022-10-21T19:31:41.592Z,69.81
2022-10-21T19:35:45.383Z,69.88
2022-10-21T19:39:50.631Z,69.81
2022-10-21T19:43:58.594Z,69.68
2022-10-21T19:48:02.606Z,69.94
2022-10-21T19:52:06.240Z,69.85
2022-10-21T19:56:10.865Z,69.69
2022-10-21T20:00:15.895Z,69.94
2022-10-21T20:04:19.400Z,69.62
2022-10-21T20:08:22.662Z,69.70
2022-10-21T20:12:27.759Z,69.82
2022-10-21T20:16:33.361Z,69.85
2022-10-21T20:20:37.084Z,69.67
2022-10-21T20:24:45.485Z,69.54
2022-10-21T20:28:51.600Z,69.53
2022-10-21T20:32:55.141Z,69.60
2022-10-21T20:36:58.179Z,69.43
2022-10-21T20:41:03.984Z,69.52
2022-10-21T20:45:09.803Z,69.54
2022-10-21T20:49:13.580Z,69.36
2022-10-21T20:53:17.023Z,69.77
2022-10-21T20:57:20.400Z,69.47
2022-10-21T21:01:27.081Z,69.58
2022-10-21T21:05:30.600Z,69.29
2022-10-21T21:10:03.980Z,69.13
2022-10-21T21:13:58.034Z,69.05
2022-10-21T21:18:04.149Z,68.88
2022-10-21T21:22:07.718Z,69.03
2022-10-21T21:26:13.973Z,69.57
2022-10-21T21:30:17.604Z,69.23
2022-10-21T21:34:21.963Z,69.20
2022-10-21T21:38:25.533Z,69.34
2022-10-21T21:42:28.984Z,69.10
2022-10-21T21:46:32.850Z,69.33
2022-10-21T21:50:37.308Z,69.20
2022-10-21T21:54:41.030Z,69.72
2022-10-21T21:58:44.498Z,69.67
2022-10-21T22:02:48.214Z,69.64
2022-10-21T22:06:52.933Z,69.63
2022-10-21T22:10:55.961Z,69.46
2022-10-21T22:14:59.394Z,69.60
2022-10-21T22:19:03.312Z,70.00
2022-10-21T22:23:08.453Z,69.85
2022-10-21T22:27:11.599Z,70.41
2022-10-21T22:31:17.762Z,69.87
2022-10-21T22:35:20.941Z,69.96
2022-10-21T22:39:26.143Z,69.95
2022-10-21T22:43:29.255Z,70.20
2022-10-21T22:47:32.311Z,70.26
2022-10-21T22:51:35.833Z,70.20
2022-10-21T22:55:40.975Z,69.99
2022-10-21T22:59:44.319Z,69.75
2022-10-21T23:03:47.787Z,70.08
2022-10-21T23:07:53.719Z,70.06
2022-10-21T23:11:58.091Z,69.94
2022-10-21T23:16:01.535Z,70.21
2022-10-21T23:20:05.699Z,70.10
2022-10-21T23:24:09.717Z,70.03
2022-10-21T23:28:14.163Z,70.16
2022-10-21T23:32:17.735Z,69.75
2022-10-21T23:36:21.189Z,69.71
2022-10-21T23:40:24.776Z,69.67
2022-10-21T23:44:30.112Z,69.70
2022-10-21T23:48:33.534Z,69.97
2022-10-21T23:52:37.333Z,69.53
2022-10-21T23:56:40.880Z,69.77
